Flight Track Log - Related Links

Times and Time Zones

All times are in EDT time to prevent confusion due to time zone crossing. See the N724AE flight status page for this flight to view local times or setup timezone preferences in your user account.

Time Position Orientation Groundspeed Altitude Reporting Facility
EDT Latitude Longitude Course Direction KTS MPH feet Rate Location/Type
Sat 04:04:06 PM 32.8500 -97.0500 275° West 184 212 3,400  Level Dallas / Fort Worth TRACON
Sat 04:05:00 PM 32.6833 -97.1658 270° West  Level FlightAware Approximate
Sat 04:05:12 PM 32.7833 -97.0500 180° South 223 257 5,900  Level Dallas / Fort Worth TRACON
Sat 04:06:00 PM 32.6855 -97.2778 275° West  Level FlightAware Approximate
Sat 04:06:13 PM 32.7500 -97.1167 239° Southwest 269 310 8,100  Level Dallas / Fort Worth TRACON
Sat 04:07:00 PM 32.6941 -97.3895 275° West  Level FlightAware Approximate
Sat 04:07:14 PM 32.7500 -97.2000 270° West 276 318 10,400  Level Dallas / Fort Worth TRACON
Sat 04:08:00 PM 32.7027 -97.5013 275° West  Level FlightAware Approximate
Sat 04:08:15 PM 32.7478 -97.2972 268° West 279 321 13,100  Level Fort Worth Center
Sat 04:09:00 PM 32.7113 -97.6130 275° West  Level FlightAware Approximate
Sat 04:09:15 PM 32.7414 -97.3911 265° West 279 321 14,900  Level Fort Worth Center
Sat 04:10:15 PM 32.7372 -97.4800 267° West 291 335 16,800 2,000 Climbing Fort Worth Center
Sat 04:11:15 PM 32.7308 -97.5911 266° West 302 348 18,900 2,000 Climbing Fort Worth Center
Sat 04:12:15 PM 32.7267 -97.6875 267° West 315 362 20,800 2,000 Climbing Fort Worth Center
Sat 04:13:15 PM 32.7242 -97.8036 269° West 320 368 22,900 1,950 Climbing Fort Worth Center
Sat 04:14:15 PM 32.7258 -97.9047 271° West 331 381 24,700 1,900 Climbing Fort Worth Center
Sat 04:15:15 PM 32.7256 -98.0111 270° West 331 381 26,700 1,850 Climbing Fort Worth Center
Sat 04:16:15 PM 32.7103 -98.1172 260° West 325 374 28,400 1,600 Climbing Fort Worth Center
Sat 04:17:15 PM 32.6992 -98.2206 263° West 330 380 29,900 1,450 Climbing Fort Worth Center
Sat 04:18:15 PM 32.6858 -98.3292 262° West 330 380 31,300 1,050 Climbing Fort Worth Center
Sat 04:19:15 PM 32.6706 -98.4450 261° West 343 395 32,000 350 Climbing Fort Worth Center
Sat 04:20:15 PM 32.6569 -98.5608 262° West 349 402 32,000  Level Fort Worth Center
Sat 04:21:15 PM 32.6392 -98.6789 260° West 355 409 32,000  Level Fort Worth Center
Sat 04:22:15 PM 32.6231 -98.7972 261° West 361 415 32,000  Level Fort Worth Center
Sat 04:23:15 PM 32.6094 -98.9128 262° West 361 415 32,000  Level Fort Worth Center
Sat 04:24:15 PM 32.5933 -99.0333 261° West 366 421 32,000  Level Fort Worth Center
Sat 04:25:15 PM 32.5769 -99.1639 262° West 372 428 32,000  Level Fort Worth Center
Sat 04:26:15 PM 32.5583 -99.2867 260° West 372 428 32,000  Level Fort Worth Center
Sat 04:27:15 PM 32.5419 -99.4094 261° West 372 428 32,000  Level Fort Worth Center
Sat 04:28:15 PM 32.5253 -99.5322 261° West 382 440 32,000  Level Fort Worth Center
Sat 04:29:15 PM 32.5000 -99.6575 257° West 382 440 32,000  Level Fort Worth Center
Sat 04:30:15 PM 32.4728 -99.7797 255° West 388 447 32,000  Level Fort Worth Center
Sat 04:31:15 PM 32.4456 -99.8997 255° West 388 447 32,000  Level Fort Worth Center
Sat 04:32:16 PM 32.4222 -100.0197 257° West 388 447 32,000 -300 Level Fort Worth Center
Sat 04:33:15 PM 32.3986 -100.1397 257° West 388 447 31,400 -1,008 Descending Fort Worth Center
Sat 04:34:15 PM 32.3731 -100.2617 256° West 388 447 30,000 -1,450 Descending Fort Worth Center
Sat 04:35:15 PM 32.3472 -100.3814 256° West 388 447 28,500 -1,450 Descending Fort Worth Center
Sat 04:36:15 PM 32.3214 -100.5011 256° West 388 447 27,100 -1,300 Descending Fort Worth Center
Sat 04:37:15 PM 32.2956 -100.6133 255° West 388 447 25,900 -1,300 Descending Fort Worth Center
Sat 04:38:15 PM 32.2717 -100.7353 257° West 394 453 24,500 -1,400 Descending Fort Worth Center
Sat 04:39:15 PM 32.2433 -100.8594 255° West 394 453 23,100 -1,450 Descending Fort Worth Center
Sat 04:40:15 PM 32.2189 -100.9814 257° West 394 453 21,600 -1,450 Descending Fort Worth Center
Sat 04:41:15 PM 32.1903 -101.1053 255° West 394 453 20,200 -1,500 Descending Fort Worth Center
Sat 04:42:15 PM 32.1614 -101.2342 255° West 387 445 18,600 -1,550 Descending Fort Worth Center
Sat 04:43:15 PM 32.1369 -101.3533 256° West 387 445 17,100 -1,450 Descending Fort Worth Center
Sat 04:44:15 PM 32.1147 -101.4603 256° West 368 423 15,700 -1,450 Descending Fort Worth Center
Sat 04:45:15 PM 32.0928 -101.5525 254° West 331 381 14,200 -1,850 Descending Fort Worth Center
Sat 04:46:15 PM 32.0733 -101.6375 255° West 293 337 12,000 -2,100 Descending Fort Worth Center
Sat 04:47:15 PM 32.0539 -101.7197 254° West 275 316 10,000 -1,950 Descending Fort Worth Center
Sat 04:48:15 PM 32.0342 -101.8072 255° West 275 316 8,100 -1,700 Descending Fort Worth Center
Sat 04:49:15 PM 32.0167 -101.8872 256° West 270 311 6,600 -1,050 Descending Fort Worth Center
Sat 04:50:15 PM 31.9992 -101.9647 255° West 258 297 6,000 -600 Descending Fort Worth Center

Login

Don't have an account? Register now (free) for customized features, flight alerts, and more!